sensor_id;sensor_type;location;lat;lon;timestamp;P1;durP1;ratioP1;P2;durP2;ratioP2
13173;SDS011;6652;48.802;9.190;2023-10-09T00:01:41;19.45;;;6.30;;
13173;SDS011;6652;48.802;9.190;2023-10-09T00:04:09;31.40;;;8.02;;
13173;SDS011;6652;48.802;9.190;2023-10-09T00:06:36;29.02;;;7.25;;
13173;SDS011;6652;48.802;9.190;2023-10-09T00:09:03;22.23;;;6.68;;
13173;SDS011;6652;48.802;9.190;2023-10-09T00:11:51;29.52;;;7.53;;
13173;SDS011;6652;48.802;9.190;2023-10-09T00:14:23;22.42;;;6.90;;
13173;SDS011;6652;48.802;9.190;2023-10-09T00:16:51;22.50;;;8.10;;
13173;SDS011;6652;48.802;9.190;2023-10-09T00:19:26;31.50;;;8.00;;
13173;SDS011;6652;48.802;9.190;2023-10-09T00:21:55;23.20;;;7.18;;
13173;SDS011;6652;48.802;9.190;2023-10-09T00:24:26;28.27;;;7.93;;
13173;SDS011;6652;48.802;9.190;2023-10-09T00:26:54;24.85;;;8.07;;
13173;SDS011;6652;48.802;9.190;2023-10-09T00:29:37;31.52;;;7.45;;
13173;SDS011;6652;48.802;9.190;2023-10-09T00:32:09;22.13;;;7.95;;
13173;SDS011;6652;48.802;9.190;2023-10-09T00:34:41;23.23;;;7.10;;
13173;SDS011;6652;48.802;9.190;2023-10-09T00:37:08;20.88;;;6.43;;
13173;SDS011;6652;48.802;9.190;2023-10-09T00:39:41;25.98;;;7.05;;
13173;SDS011;6652;48.802;9.190;2023-10-09T00:42:08;20.38;;;6.70;;
13173;SDS011;6652;48.802;9.190;2023-10-09T00:44:39;20.80;;;6.85;;
13173;SDS011;6652;48.802;9.190;2023-10-09T00:47:07;19.60;;;6.30;;
13173;SDS011;6652;48.802;9.190;2023-10-09T00:49:49;26.10;;;7.18;;
13173;SDS011;6652;48.802;9.190;2023-10-09T00:52:24;21.48;;;7.00;;
13173;SDS011;6652;48.802;9.190;2023-10-09T00:55:04;24.80;;;7.18;;
13173;SDS011;6652;48.802;9.190;2023-10-09T00:57:38;29.95;;;6.32;;
13173;SDS011;6652;48.802;9.190;2023-10-09T01:00:14;34.00;;;7.00;;
13173;SDS011;6652;48.802;9.190;2023-10-09T01:02:57;20.13;;;7.05;;
13173;SDS011;6652;48.802;9.190;2023-10-09T01:05:44;27.92;;;8.20;;
13173;SDS011;6652;48.802;9.190;2023-10-09T01:08:17;21.10;;;6.50;;
13173;SDS011;6652;48.802;9.190;2023-10-09T01:10:50;27.80;;;7.82;;
13173;SDS011;6652;48.802;9.190;2023-10-09T01:13:21;26.50;;;7.03;;
13173;SDS011;6652;48.802;9.190;2023-10-09T01:15:53;20.75;;;6.72;;
13173;SDS011;6652;48.802;9.190;2023-10-09T01:18:23;19.10;;;6.30;;
13173;SDS011;6652;48.802;9.190;2023-10-09T01:21:00;22.65;;;7.03;;
13173;SDS011;6652;48.802;9.190;2023-10-09T01:23:29;24.08;;;7.43;;
13173;SDS011;6652;48.802;9.190;2023-10-09T01:25:56;22.98;;;7.00;;
13173;SDS011;6652;48.802;9.190;2023-10-09T01:28:23;26.17;;;6.50;;
13173;SDS011;6652;48.802;9.190;2023-10-09T01:30:51;26.55;;;7.22;;
13173;SDS011;6652;48.802;9.190;2023-10-09T01:33:20;23.73;;;6.97;;
13173;SDS011;6652;48.802;9.190;2023-10-09T01:35:49;27.65;;;6.80;;
13173;SDS011;6652;48.802;9.190;2023-10-09T01:38:21;25.25;;;6.70;;
13173;SDS011;6652;48.802;9.190;2023-10-09T01:40:58;29.60;;;8.27;;
13173;SDS011;6652;48.802;9.190;2023-10-09T01:43:32;27.38;;;6.75;;
13173;SDS011;6652;48.802;9.190;2023-10-09T01:46:00;32.35;;;6.72;;
13173;SDS011;6652;48.802;9.190;2023-10-09T01:48:29;29.70;;;7.82;;
13173;SDS011;6652;48.802;9.190;2023-10-09T01:51:01;25.85;;;6.78;;
13173;SDS011;6652;48.802;9.190;2023-10-09T01:53:30;26.23;;;7.50;;
13173;SDS011;6652;48.802;9.190;2023-10-09T01:56:07;25.95;;;6.82;;
13173;SDS011;6652;48.802;9.190;2023-10-09T01:58:35;31.27;;;7.57;;
13173;SDS011;6652;48.802;9.190;2023-10-09T02:01:02;29.58;;;7.05;;
13173;SDS011;6652;48.802;9.190;2023-10-09T02:03:31;22.33;;;6.50;;
13173;SDS011;6652;48.802;9.190;2023-10-09T02:06:02;20.10;;;6.95;;
13173;SDS011;6652;48.802;9.190;2023-10-09T02:08:30;29.42;;;7.07;;
13173;SDS011;6652;48.802;9.190;2023-10-09T02:11:00;22.48;;;6.70;;
13173;SDS011;6652;48.802;9.190;2023-10-09T02:13:29;32.38;;;6.93;;
13173;SDS011;6652;48.802;9.190;2023-10-09T02:15:59;29.80;;;6.95;;
13173;SDS011;6652;48.802;9.190;2023-10-09T02:18:39;22.92;;;7.07;;
13173;SDS011;6652;48.802;9.190;2023-10-09T02:21:18;34.38;;;9.30;;
13173;SDS011;6652;48.802;9.190;2023-10-09T02:23:53;30.77;;;7.93;;
13173;SDS011;6652;48.802;9.190;2023-10-09T02:26:22;26.25;;;7.57;;
13173;SDS011;6652;48.802;9.190;2023-10-09T02:28:52;28.08;;;8.35;;
13173;SDS011;6652;48.802;9.190;2023-10-09T02:31:23;30.42;;;7.35;;
13173;SDS011;6652;48.802;9.190;2023-10-09T02:33:53;26.25;;;6.40;;
13173;SDS011;6652;48.802;9.190;2023-10-09T02:36:21;28.85;;;6.60;;
13173;SDS011;6652;48.802;9.190;2023-10-09T02:38:48;32.13;;;6.80;;
13173;SDS011;6652;48.802;9.190;2023-10-09T02:41:18;37.40;;;8.10;;
13173;SDS011;6652;48.802;9.190;2023-10-09T02:43:54;37.55;;;7.32;;
13173;SDS011;6652;48.802;9.190;2023-10-09T02:46:23;23.00;;;6.70;;
13173;SDS011;6652;48.802;9.190;2023-10-09T02:48:56;23.33;;;6.85;;
13173;SDS011;6652;48.802;9.190;2023-10-09T02:51:24;23.52;;;7.30;;
13173;SDS011;6652;48.802;9.190;2023-10-09T02:53:59;28.27;;;7.43;;
13173;SDS011;6652;48.802;9.190;2023-10-09T02:56:33;36.15;;;7.00;;
13173;SDS011;6652;48.802;9.190;2023-10-09T02:59:04;23.63;;;6.53;;
13173;SDS011;6652;48.802;9.190;2023-10-09T03:01:32;32.03;;;7.03;;
13173;SDS011;6652;48.802;9.190;2023-10-09T03:04:00;33.92;;;7.63;;
13173;SDS011;6652;48.802;9.190;2023-10-09T03:06:28;31.63;;;7.18;;
13173;SDS011;6652;48.802;9.190;2023-10-09T03:08:56;21.63;;;6.45;;
13173;SDS011;6652;48.802;9.190;2023-10-09T03:11:23;29.08;;;7.38;;
13173;SDS011;6652;48.802;9.190;2023-10-09T03:13:51;31.13;;;6.43;;
13173;SDS011;6652;48.802;9.190;2023-10-09T03:16:20;40.83;;;7.90;;
13173;SDS011;6652;48.802;9.190;2023-10-09T03:18:47;27.10;;;7.53;;
13173;SDS011;6652;48.802;9.190;2023-10-09T03:21:15;29.25;;;7.28;;
13173;SDS011;6652;48.802;9.190;2023-10-09T03:23:42;27.67;;;7.80;;
13173;SDS011;6652;48.802;9.190;2023-10-09T03:26:10;26.08;;;7.32;;
13173;SDS011;6652;48.802;9.190;2023-10-09T03:28:37;24.27;;;7.22;;
13173;SDS011;6652;48.802;9.190;2023-10-09T03:31:03;26.95;;;6.78;;
13173;SDS011;6652;48.802;9.190;2023-10-09T03:33:33;27.77;;;7.55;;
13173;SDS011;6652;48.802;9.190;2023-10-09T03:36:00;28.50;;;7.90;;
13173;SDS011;6652;48.802;9.190;2023-10-09T03:38:32;31.95;;;9.20;;
13173;SDS011;6652;48.802;9.190;2023-10-09T03:41:01;23.67;;;7.30;;
13173;SDS011;6652;48.802;9.190;2023-10-09T03:43:31;27.45;;;7.53;;
13173;SDS011;6652;48.802;9.190;2023-10-09T03:46:02;39.92;;;7.45;;
13173;SDS011;6652;48.802;9.190;2023-10-09T03:48:30;24.17;;;7.05;;
13173;SDS011;6652;48.802;9.190;2023-10-09T03:51:00;29.70;;;7.93;;
13173;SDS011;6652;48.802;9.190;2023-10-09T03:53:34;28.33;;;7.78;;
13173;SDS011;6652;48.802;9.190;2023-10-09T03:56:03;23.45;;;6.35;;
13173;SDS011;6652;48.802;9.190;2023-10-09T03:58:37;31.15;;;7.47;;
13173;SDS011;6652;48.802;9.190;2023-10-09T04:01:08;26.58;;;6.45;;
13173;SDS011;6652;48.802;9.190;2023-10-09T04:03:41;24.13;;;6.97;;
13173;SDS011;6652;48.802;9.190;2023-10-09T04:06:10;25.77;;;6.88;;
13173;SDS011;6652;48.802;9.190;2023-10-09T04:08:37;29.23;;;8.73;;
13173;SDS011;6652;48.802;9.190;2023-10-09T04:11:09;31.23;;;7.60;;
13173;SDS011;6652;48.802;9.190;2023-10-09T04:13:41;25.17;;;6.90;;
13173;SDS011;6652;48.802;9.190;2023-10-09T04:16:11;25.85;;;7.82;;
13173;SDS011;6652;48.802;9.190;2023-10-09T04:18:59;22.92;;;7.57;;
13173;SDS011;6652;48.802;9.190;2023-10-09T04:21:32;25.83;;;6.50;;
13173;SDS011;6652;48.802;9.190;2023-10-09T04:24:01;34.55;;;7.38;;
13173;SDS011;6652;48.802;9.190;2023-10-09T04:26:46;31.60;;;7.90;;
13173;SDS011;6652;48.802;9.190;2023-10-09T04:29:13;30.48;;;8.88;;
13173;SDS011;6652;48.802;9.190;2023-10-09T04:31:43;28.67;;;7.90;;
13173;SDS011;6652;48.802;9.190;2023-10-09T04:34:16;34.70;;;8.82;;
13173;SDS011;6652;48.802;9.190;2023-10-09T04:36:55;29.35;;;8.93;;
13173;SDS011;6652;48.802;9.190;2023-10-09T04:39:42;34.95;;;8.68;;
13173;SDS011;6652;48.802;9.190;2023-10-09T04:42:12;34.53;;;9.32;;
13173;SDS011;6652;48.802;9.190;2023-10-09T04:44:57;28.02;;;9.23;;
13173;SDS011;6652;48.802;9.190;2023-10-09T04:47:42;29.40;;;8.90;;
13173;SDS011;6652;48.802;9.190;2023-10-09T04:50:22;34.22;;;9.23;;
13173;SDS011;6652;48.802;9.190;2023-10-09T04:53:13;30.35;;;9.00;;
13173;SDS011;6652;48.802;9.190;2023-10-09T04:55:47;36.97;;;9.20;;
13173;SDS011;6652;48.802;9.190;2023-10-09T04:58:20;42.15;;;10.88;;
13173;SDS011;6652;48.802;9.190;2023-10-09T05:00:51;36.35;;;9.98;;
13173;SDS011;6652;48.802;9.190;2023-10-09T05:03:36;35.63;;;9.27;;
13173;SDS011;6652;48.802;9.190;2023-10-09T05:06:18;35.22;;;9.50;;
13173;SDS011;6652;48.802;9.190;2023-10-09T05:09:08;29.48;;;8.10;;
13173;SDS011;6652;48.802;9.190;2023-10-09T05:11:38;35.88;;;9.80;;
13173;SDS011;6652;48.802;9.190;2023-10-09T05:14:19;34.80;;;9.50;;
13173;SDS011;6652;48.802;9.190;2023-10-09T05:17:03;35.63;;;8.35;;
13173;SDS011;6652;48.802;9.190;2023-10-09T05:19:31;45.30;;;9.02;;
13173;SDS011;6652;48.802;9.190;2023-10-09T05:22:18;26.70;;;9.25;;
13173;SDS011;6652;48.802;9.190;2023-10-09T05:25:02;27.35;;;8.10;;
13173;SDS011;6652;48.802;9.190;2023-10-09T05:27:41;36.35;;;9.25;;
13173;SDS011;6652;48.802;9.190;2023-10-09T05:30:10;38.88;;;8.82;;
13173;SDS011;6652;48.802;9.190;2023-10-09T05:32:58;32.45;;;8.57;;
13173;SDS011;6652;48.802;9.190;2023-10-09T05:35:44;27.40;;;8.63;;
13173;SDS011;6652;48.802;9.190;2023-10-09T05:38:30;38.55;;;9.43;;
13173;SDS011;6652;48.802;9.190;2023-10-09T05:41:02;38.03;;;8.57;;
13173;SDS011;6652;48.802;9.190;2023-10-09T05:43:51;34.78;;;8.07;;
13173;SDS011;6652;48.802;9.190;2023-10-09T05:46:35;35.25;;;9.23;;
13173;SDS011;6652;48.802;9.190;2023-10-09T05:49:02;34.42;;;8.32;;
13173;SDS011;6652;48.802;9.190;2023-10-09T05:51:34;30.95;;;8.45;;
13173;SDS011;6652;48.802;9.190;2023-10-09T05:54:18;26.13;;;9.35;;
13173;SDS011;6652;48.802;9.190;2023-10-09T05:57:06;41.20;;;9.55;;
13173;SDS011;6652;48.802;9.190;2023-10-09T05:59:49;31.10;;;9.25;;
13173;SDS011;6652;48.802;9.190;2023-10-09T06:02:33;39.20;;;9.10;;
13173;SDS011;6652;48.802;9.190;2023-10-09T06:05:17;42.67;;;8.75;;
13173;SDS011;6652;48.802;9.190;2023-10-09T06:08:03;29.13;;;8.27;;
13173;SDS011;6652;48.802;9.190;2023-10-09T06:10:31;33.53;;;8.15;;
13173;SDS011;6652;48.802;9.190;2023-10-09T06:15:54;32.53;;;9.27;;
13173;SDS011;6652;48.802;9.190;2023-10-09T06:18:45;29.40;;;7.63;;
13173;SDS011;6652;48.802;9.190;2023-10-09T06:21:19;33.63;;;9.35;;
13173;SDS011;6652;48.802;9.190;2023-10-09T06:24:05;34.72;;;8.57;;
13173;SDS011;6652;48.802;9.190;2023-10-09T06:26:41;38.40;;;8.60;;
13173;SDS011;6652;48.802;9.190;2023-10-09T06:29:18;32.05;;;8.88;;
13173;SDS011;6652;48.802;9.190;2023-10-09T06:31:59;44.60;;;10.23;;
13173;SDS011;6652;48.802;9.190;2023-10-09T06:34:40;37.35;;;10.15;;
13173;SDS011;6652;48.802;9.190;2023-10-09T06:37:10;43.33;;;9.20;;
13173;SDS011;6652;48.802;9.190;2023-10-09T06:39:59;44.28;;;8.32;;
13173;SDS011;6652;48.802;9.190;2023-10-09T06:42:58;37.70;;;8.15;;
13173;SDS011;6652;48.802;9.190;2023-10-09T06:45:34;37.85;;;9.95;;
13173;SDS011;6652;48.802;9.190;2023-10-09T06:48:09;36.47;;;8.38;;
13173;SDS011;6652;48.802;9.190;2023-10-09T06:50:50;38.83;;;8.18;;
13173;SDS011;6652;48.802;9.190;2023-10-09T06:53:29;44.63;;;9.50;;
13173;SDS011;6652;48.802;9.190;2023-10-09T06:56:10;37.53;;;8.45;;
13173;SDS011;6652;48.802;9.190;2023-10-09T06:58:48;27.90;;;8.10;;
13173;SDS011;6652;48.802;9.190;2023-10-09T07:01:15;36.40;;;9.00;;
13173;SDS011;6652;48.802;9.190;2023-10-09T07:06:43;31.13;;;8.07;;
13173;SDS011;6652;48.802;9.190;2023-10-09T07:09:17;28.35;;;9.02;;
13173;SDS011;6652;48.802;9.190;2023-10-09T07:11:45;36.33;;;7.75;;
13173;SDS011;6652;48.802;9.190;2023-10-09T07:14:29;45.97;;;8.25;;
13173;SDS011;6652;48.802;9.190;2023-10-09T07:17:08;49.28;;;9.40;;
13173;SDS011;6652;48.802;9.190;2023-10-09T07:19:46;34.35;;;7.90;;
13173;SDS011;6652;48.802;9.190;2023-10-09T07:22:34;36.88;;;8.43;;
13173;SDS011;6652;48.802;9.190;2023-10-09T07:25:17;44.20;;;8.95;;
13173;SDS011;6652;48.802;9.190;2023-10-09T07:28:05;38.70;;;8.77;;
13173;SDS011;6652;48.802;9.190;2023-10-09T07:30:43;31.75;;;8.20;;
13173;SDS011;6652;48.802;9.190;2023-10-09T07:33:12;37.60;;;9.63;;
13173;SDS011;6652;48.802;9.190;2023-10-09T07:35:43;47.58;;;8.80;;
13173;SDS011;6652;48.802;9.190;2023-10-09T07:38:23;44.30;;;8.18;;
13173;SDS011;6652;48.802;9.190;2023-10-09T07:40:53;41.38;;;7.40;;
13173;SDS011;6652;48.802;9.190;2023-10-09T07:43:25;40.33;;;8.52;;
13173;SDS011;6652;48.802;9.190;2023-10-09T07:45:54;33.63;;;7.93;;
13173;SDS011;6652;48.802;9.190;2023-10-09T07:48:42;33.92;;;8.27;;
13173;SDS011;6652;48.802;9.190;2023-10-09T07:51:17;31.77;;;7.82;;
13173;SDS011;6652;48.802;9.190;2023-10-09T07:53:48;32.17;;;8.02;;
13173;SDS011;6652;48.802;9.190;2023-10-09T07:56:22;28.75;;;7.72;;
13173;SDS011;6652;48.802;9.190;2023-10-09T07:58:49;39.55;;;8.70;;
13173;SDS011;6652;48.802;9.190;2023-10-09T08:01:17;32.50;;;7.05;;
13173;SDS011;6652;48.802;9.190;2023-10-09T08:03:49;32.80;;;7.05;;
13173;SDS011;6652;48.802;9.190;2023-10-09T08:06:26;25.70;;;7.22;;
13173;SDS011;6652;48.802;9.190;2023-10-09T08:09:07;37.67;;;8.05;;
13173;SDS011;6652;48.802;9.190;2023-10-09T08:11:43;30.30;;;7.50;;
13173;SDS011;6652;48.802;9.190;2023-10-09T08:14:28;40.22;;;7.60;;
13173;SDS011;6652;48.802;9.190;2023-10-09T08:17:13;38.58;;;8.30;;
13173;SDS011;6652;48.802;9.190;2023-10-09T08:19:42;32.35;;;8.13;;
13173;SDS011;6652;48.802;9.190;2023-10-09T08:22:26;44.63;;;8.65;;
13173;SDS011;6652;48.802;9.190;2023-10-09T08:25:09;36.45;;;9.10;;
13173;SDS011;6652;48.802;9.190;2023-10-09T08:27:50;33.15;;;7.68;;
13173;SDS011;6652;48.802;9.190;2023-10-09T08:30:20;44.17;;;8.57;;
13173;SDS011;6652;48.802;9.190;2023-10-09T08:33:05;23.17;;;7.00;;
13173;SDS011;6652;48.802;9.190;2023-10-09T08:35:55;33.78;;;7.00;;
13173;SDS011;6652;48.802;9.190;2023-10-09T08:41:05;23.90;;;6.75;;
13173;SDS011;6652;48.802;9.190;2023-10-09T08:43:41;32.55;;;6.65;;
13173;SDS011;6652;48.802;9.190;2023-10-09T08:46:17;34.83;;;7.38;;
13173;SDS011;6652;48.802;9.190;2023-10-09T08:48:45;30.65;;;6.65;;
13173;SDS011;6652;48.802;9.190;2023-10-09T08:51:14;37.65;;;6.78;;
13173;SDS011;6652;48.802;9.190;2023-10-09T08:53:43;25.58;;;6.57;;
13173;SDS011;6652;48.802;9.190;2023-10-09T08:56:11;38.17;;;7.35;;
13173;SDS011;6652;48.802;9.190;2023-10-09T08:58:40;47.00;;;7.65;;
13173;SDS011;6652;48.802;9.190;2023-10-09T09:01:08;33.60;;;8.10;;
13173;SDS011;6652;48.802;9.190;2023-10-09T09:03:40;32.60;;;7.90;;
13173;SDS011;6652;48.802;9.190;2023-10-09T09:06:08;35.63;;;7.25;;
13173;SDS011;6652;48.802;9.190;2023-10-09T09:08:37;34.35;;;6.78;;
13173;SDS011;6652;48.802;9.190;2023-10-09T09:11:07;39.67;;;6.78;;
13173;SDS011;6652;48.802;9.190;2023-10-09T09:13:40;45.55;;;7.95;;
13173;SDS011;6652;48.802;9.190;2023-10-09T09:16:13;43.13;;;7.50;;
13173;SDS011;6652;48.802;9.190;2023-10-09T09:18:52;42.38;;;8.15;;
13173;SDS011;6652;48.802;9.190;2023-10-09T09:21:25;33.33;;;8.07;;
13173;SDS011;6652;48.802;9.190;2023-10-09T09:23:54;42.45;;;8.63;;
13173;SDS011;6652;48.802;9.190;2023-10-09T09:26:32;41.97;;;7.60;;
13173;SDS011;6652;48.802;9.190;2023-10-09T09:29:04;44.05;;;8.15;;
13173;SDS011;6652;48.802;9.190;2023-10-09T09:31:32;27.27;;;7.82;;
13173;SDS011;6652;48.802;9.190;2023-10-09T09:34:03;40.78;;;9.18;;
13173;SDS011;6652;48.802;9.190;2023-10-09T09:36:37;45.83;;;8.25;;
13173;SDS011;6652;48.802;9.190;2023-10-09T09:39:21;35.80;;;7.78;;
13173;SDS011;6652;48.802;9.190;2023-10-09T09:41:53;51.28;;;8.70;;
13173;SDS011;6652;48.802;9.190;2023-10-09T09:44:23;42.63;;;8.50;;
13173;SDS011;6652;48.802;9.190;2023-10-09T09:46:56;37.55;;;7.55;;
13173;SDS011;6652;48.802;9.190;2023-10-09T09:49:25;35.60;;;7.35;;
13173;SDS011;6652;48.802;9.190;2023-10-09T09:51:57;45.42;;;8.80;;
13173;SDS011;6652;48.802;9.190;2023-10-09T09:54:26;38.85;;;8.23;;
13173;SDS011;6652;48.802;9.190;2023-10-09T09:59:26;41.17;;;7.97;;
13173;SDS011;6652;48.802;9.190;2023-10-09T10:01:55;31.30;;;7.57;;
13173;SDS011;6652;48.802;9.190;2023-10-09T10:04:31;40.95;;;9.00;;
13173;SDS011;6652;48.802;9.190;2023-10-09T10:07:01;37.63;;;8.05;;
13173;SDS011;6652;48.802;9.190;2023-10-09T10:09:35;49.63;;;8.90;;
13173;SDS011;6652;48.802;9.190;2023-10-09T10:12:04;48.42;;;8.30;;
13173;SDS011;6652;48.802;9.190;2023-10-09T10:17:22;44.83;;;9.38;;
13173;SDS011;6652;48.802;9.190;2023-10-09T10:19:58;39.72;;;7.45;;
13173;SDS011;6652;48.802;9.190;2023-10-09T10:22:25;54.60;;;7.55;;
13173;SDS011;6652;48.802;9.190;2023-10-09T10:24:54;44.97;;;7.55;;
13173;SDS011;6652;48.802;9.190;2023-10-09T10:27:24;42.67;;;7.95;;
13173;SDS011;6652;48.802;9.190;2023-10-09T10:32:56;38.65;;;7.25;;
13173;SDS011;6652;48.802;9.190;2023-10-09T10:35:34;41.55;;;7.13;;
13173;SDS011;6652;48.802;9.190;2023-10-09T10:41:13;35.65;;;7.28;;
13173;SDS011;6652;48.802;9.190;2023-10-09T10:43:44;40.72;;;7.93;;
13173;SDS011;6652;48.802;9.190;2023-10-09T10:46:24;36.10;;;7.78;;
13173;SDS011;6652;48.802;9.190;2023-10-09T10:49:03;44.75;;;8.55;;
13173;SDS011;6652;48.802;9.190;2023-10-09T10:51:45;54.50;;;8.82;;
13173;SDS011;6652;48.802;9.190;2023-10-09T10:54:21;53.65;;;9.52;;
13173;SDS011;6652;48.802;9.190;2023-10-09T10:57:17;38.50;;;8.90;;
13173;SDS011;6652;48.802;9.190;2023-10-09T11:00:16;51.80;;;8.43;;
13173;SDS011;6652;48.802;9.190;2023-10-09T11:02:57;54.85;;;9.43;;
13173;SDS011;6652;48.802;9.190;2023-10-09T11:05:38;40.95;;;8.68;;
13173;SDS011;6652;48.802;9.190;2023-10-09T11:08:08;43.15;;;8.68;;
13173;SDS011;6652;48.802;9.190;2023-10-09T11:10:36;40.78;;;9.07;;
13173;SDS011;6652;48.802;9.190;2023-10-09T11:13:21;51.10;;;10.18;;
13173;SDS011;6652;48.802;9.190;2023-10-09T11:15:58;46.70;;;9.30;;
13173;SDS011;6652;48.802;9.190;2023-10-09T11:18:52;55.85;;;9.32;;
13173;SDS011;6652;48.802;9.190;2023-10-09T11:21:21;63.65;;;10.15;;
13173;SDS011;6652;48.802;9.190;2023-10-09T11:23:56;54.78;;;10.65;;
13173;SDS011;6652;48.802;9.190;2023-10-09T11:26:34;50.30;;;9.50;;
13173;SDS011;6652;48.802;9.190;2023-10-09T11:29:08;45.67;;;10.38;;
13173;SDS011;6652;48.802;9.190;2023-10-09T11:32:01;31.48;;;9.45;;
13173;SDS011;6652;48.802;9.190;2023-10-09T11:34:31;37.92;;;10.88;;
13173;SDS011;6652;48.802;9.190;2023-10-09T11:37:01;48.20;;;10.35;;
13173;SDS011;6652;48.802;9.190;2023-10-09T11:39:28;60.30;;;11.20;;
13173;SDS011;6652;48.802;9.190;2023-10-09T11:42:15;54.67;;;11.07;;
13173;SDS011;6652;48.802;9.190;2023-10-09T11:45:00;66.45;;;11.40;;
13173;SDS011;6652;48.802;9.190;2023-10-09T11:47:44;45.85;;;10.77;;
13173;SDS011;6652;48.802;9.190;2023-10-09T11:50:20;43.70;;;10.48;;
13173;SDS011;6652;48.802;9.190;2023-10-09T11:52:56;50.15;;;10.55;;
13173;SDS011;6652;48.802;9.190;2023-10-09T11:55:37;56.10;;;11.25;;
13173;SDS011;6652;48.802;9.190;2023-10-09T11:58:04;50.65;;;10.63;;
13173;SDS011;6652;48.802;9.190;2023-10-09T12:00:32;49.75;;;10.77;;
13173;SDS011;6652;48.802;9.190;2023-10-09T12:03:09;42.50;;;11.60;;
13173;SDS011;6652;48.802;9.190;2023-10-09T12:05:39;51.38;;;11.20;;
13173;SDS011;6652;48.802;9.190;2023-10-09T12:08:09;49.55;;;11.73;;
13173;SDS011;6652;48.802;9.190;2023-10-09T12:10:38;56.17;;;12.57;;
13173;SDS011;6652;48.802;9.190;2023-10-09T12:13:05;52.95;;;11.05;;
13173;SDS011;6652;48.802;9.190;2023-10-09T12:15:32;55.70;;;11.18;;
13173;SDS011;6652;48.802;9.190;2023-10-09T12:18:04;61.97;;;10.05;;
13173;SDS011;6652;48.802;9.190;2023-10-09T12:20:34;45.65;;;10.13;;
13173;SDS011;6652;48.802;9.190;2023-10-09T12:23:02;44.92;;;10.13;;
13173;SDS011;6652;48.802;9.190;2023-10-09T12:25:31;48.63;;;9.48;;
13173;SDS011;6652;48.802;9.190;2023-10-09T12:28:00;55.42;;;9.52;;
13173;SDS011;6652;48.802;9.190;2023-10-09T12:30:28;51.08;;;10.25;;
13173;SDS011;6652;48.802;9.190;2023-10-09T12:32:55;56.50;;;10.18;;
13173;SDS011;6652;48.802;9.190;2023-10-09T12:35:23;41.13;;;8.82;;
13173;SDS011;6652;48.802;9.190;2023-10-09T12:37:50;54.88;;;9.48;;
13173;SDS011;6652;48.802;9.190;2023-10-09T12:40:21;51.13;;;10.45;;
13173;SDS011;6652;48.802;9.190;2023-10-09T12:42:54;51.58;;;9.07;;
13173;SDS011;6652;48.802;9.190;2023-10-09T12:45:24;47.60;;;9.23;;
13173;SDS011;6652;48.802;9.190;2023-10-09T12:47:52;45.67;;;9.07;;
13173;SDS011;6652;48.802;9.190;2023-10-09T12:50:24;44.57;;;7.47;;
13173;SDS011;6652;48.802;9.190;2023-10-09T12:52:54;41.85;;;7.72;;
13173;SDS011;6652;48.802;9.190;2023-10-09T12:55:23;31.02;;;7.78;;
13173;SDS011;6652;48.802;9.190;2023-10-09T12:57:57;30.58;;;8.35;;
13173;SDS011;6652;48.802;9.190;2023-10-09T13:00:31;38.10;;;8.65;;
13173;SDS011;6652;48.802;9.190;2023-10-09T13:03:02;30.75;;;7.13;;
13173;SDS011;6652;48.802;9.190;2023-10-09T13:05:41;34.67;;;8.75;;
13173;SDS011;6652;48.802;9.190;2023-10-09T13:08:17;38.97;;;8.57;;
13173;SDS011;6652;48.802;9.190;2023-10-09T13:10:48;38.03;;;8.70;;
13173;SDS011;6652;48.802;9.190;2023-10-09T13:13:23;32.83;;;8.55;;
13173;SDS011;6652;48.802;9.190;2023-10-09T13:16:01;28.42;;;8.07;;
13173;SDS011;6652;48.802;9.190;2023-10-09T13:18:31;36.88;;;9.23;;
13173;SDS011;6652;48.802;9.190;2023-10-09T13:20:58;35.33;;;7.28;;
13173;SDS011;6652;48.802;9.190;2023-10-09T13:23:28;25.67;;;7.80;;
13173;SDS011;6652;48.802;9.190;2023-10-09T13:26:05;23.27;;;8.20;;
13173;SDS011;6652;48.802;9.190;2023-10-09T13:28:43;26.17;;;7.85;;
13173;SDS011;6652;48.802;9.190;2023-10-09T13:31:14;22.52;;;7.70;;
13173;SDS011;6652;48.802;9.190;2023-10-09T13:33:43;23.65;;;7.47;;
13173;SDS011;6652;48.802;9.190;2023-10-09T13:36:11;23.33;;;9.20;;
13173;SDS011;6652;48.802;9.190;2023-10-09T13:38:52;17.95;;;9.02;;
13173;SDS011;6652;48.802;9.190;2023-10-09T13:41:21;24.65;;;8.77;;
13173;SDS011;6652;48.802;9.190;2023-10-09T13:43:53;13.68;;;8.32;;
13173;SDS011;6652;48.802;9.190;2023-10-09T13:46:21;19.88;;;9.10;;
13173;SDS011;6652;48.802;9.190;2023-10-09T13:48:49;20.85;;;8.52;;
13173;SDS011;6652;48.802;9.190;2023-10-09T13:51:17;20.50;;;9.80;;
13173;SDS011;6652;48.802;9.190;2023-10-09T13:53:48;14.38;;;8.02;;
13173;SDS011;6652;48.802;9.190;2023-10-09T13:56:15;22.15;;;9.13;;
13173;SDS011;6652;48.802;9.190;2023-10-09T13:58:48;17.05;;;8.93;;
13173;SDS011;6652;48.802;9.190;2023-10-09T14:01:17;21.25;;;9.38;;
13173;SDS011;6652;48.802;9.190;2023-10-09T14:03:52;17.92;;;8.77;;
13173;SDS011;6652;48.802;9.190;2023-10-09T14:06:20;22.85;;;9.00;;
13173;SDS011;6652;48.802;9.190;2023-10-09T14:08:55;19.02;;;9.13;;
13173;SDS011;6652;48.802;9.190;2023-10-09T14:11:22;18.58;;;9.02;;
13173;SDS011;6652;48.802;9.190;2023-10-09T14:13:51;16.38;;;8.60;;
13173;SDS011;6652;48.802;9.190;2023-10-09T14:16:18;17.60;;;9.27;;
13173;SDS011;6652;48.802;9.190;2023-10-09T14:18:52;22.23;;;8.88;;
13173;SDS011;6652;48.802;9.190;2023-10-09T14:21:22;16.23;;;8.20;;
13173;SDS011;6652;48.802;9.190;2023-10-09T14:23:50;18.38;;;8.35;;
13173;SDS011;6652;48.802;9.190;2023-10-09T14:26:20;19.20;;;7.63;;
13173;SDS011;6652;48.802;9.190;2023-10-09T14:28:47;16.83;;;7.32;;
13173;SDS011;6652;48.802;9.190;2023-10-09T14:31:16;15.20;;;7.63;;
13173;SDS011;6652;48.802;9.190;2023-10-09T14:33:47;15.48;;;7.65;;
13173;SDS011;6652;48.802;9.190;2023-10-09T14:36:16;18.23;;;8.23;;
13173;SDS011;6652;48.802;9.190;2023-10-09T14:38:44;15.18;;;7.63;;
13173;SDS011;6652;48.802;9.190;2023-10-09T14:41:12;22.27;;;8.23;;
13173;SDS011;6652;48.802;9.190;2023-10-09T14:43:39;19.45;;;7.85;;
13173;SDS011;6652;48.802;9.190;2023-10-09T14:46:06;20.20;;;8.38;;
13173;SDS011;6652;48.802;9.190;2023-10-09T14:48:37;15.70;;;8.32;;
13173;SDS011;6652;48.802;9.190;2023-10-09T14:51:04;20.70;;;9.15;;
13173;SDS011;6652;48.802;9.190;2023-10-09T14:53:32;22.60;;;8.52;;
13173;SDS011;6652;48.802;9.190;2023-10-09T14:55:59;23.77;;;8.55;;
13173;SDS011;6652;48.802;9.190;2023-10-09T14:58:28;24.67;;;7.60;;
13173;SDS011;6652;48.802;9.190;2023-10-09T15:00:57;26.17;;;9.30;;
13173;SDS011;6652;48.802;9.190;2023-10-09T15:03:34;16.80;;;8.30;;
13173;SDS011;6652;48.802;9.190;2023-10-09T15:06:03;18.25;;;8.32;;
13173;SDS011;6652;48.802;9.190;2023-10-09T15:08:33;20.30;;;8.50;;
13173;SDS011;6652;48.802;9.190;2023-10-09T15:11:00;27.70;;;8.98;;
13173;SDS011;6652;48.802;9.190;2023-10-09T15:13:27;14.93;;;8.15;;
13173;SDS011;6652;48.802;9.190;2023-10-09T15:15:55;21.92;;;9.15;;
13173;SDS011;6652;48.802;9.190;2023-10-09T15:18:22;23.15;;;9.07;;
13173;SDS011;6652;48.802;9.190;2023-10-09T15:20:50;18.77;;;9.10;;
13173;SDS011;6652;48.802;9.190;2023-10-09T15:23:19;20.38;;;8.95;;
13173;SDS011;6652;48.802;9.190;2023-10-09T15:25:46;22.63;;;9.07;;
13173;SDS011;6652;48.802;9.190;2023-10-09T15:28:16;22.73;;;8.60;;
13173;SDS011;6652;48.802;9.190;2023-10-09T15:30:44;23.05;;;8.25;;
13173;SDS011;6652;48.802;9.190;2023-10-09T15:33:13;18.73;;;7.80;;
13173;SDS011;6652;48.802;9.190;2023-10-09T15:35:41;15.77;;;8.10;;
13173;SDS011;6652;48.802;9.190;2023-10-09T15:38:10;20.17;;;7.57;;
13173;SDS011;6652;48.802;9.190;2023-10-09T15:40:40;19.45;;;7.95;;
13173;SDS011;6652;48.802;9.190;2023-10-09T15:43:08;23.05;;;7.70;;